createdAt,value
2023-01-13T00:00:54.883Z,97666.97
2023-01-13T00:03:58.247Z,97665.84
2023-01-13T00:07:03.004Z,97665.31
2023-01-13T00:10:07.731Z,97666.25
2023-01-13T00:13:11.677Z,97667.16
2023-01-13T00:16:17.168Z,97653.50
2023-01-13T00:19:20.713Z,97650.97
2023-01-13T00:22:26.364Z,97659.16
2023-01-13T00:25:29.591Z,97652.72
2023-01-13T00:28:33.079Z,97646.84
2023-01-13T00:31:36.415Z,97642.09
2023-01-13T00:34:39.774Z,97638.81
2023-01-13T00:37:44.574Z,97631.78
2023-01-13T00:40:56.685Z,97621.59
2023-01-13T00:44:07.971Z,97616.66
2023-01-13T00:47:13.479Z,97625.06
2023-01-13T00:50:17.503Z,97634.34
2023-01-13T00:53:22.610Z,97631.84
2023-01-13T00:56:39.762Z,97631.63
2023-01-13T00:59:43.758Z,97623.31
2023-01-13T01:02:47.097Z,97620.91
2023-01-13T01:05:50.659Z,97615.34
2023-01-13T01:08:57.797Z,97620.75
2023-01-13T01:12:01.423Z,97605.94
2023-01-13T01:15:07.371Z,97604.88
2023-01-13T01:18:10.835Z,97604.88
2023-01-13T01:21:15.538Z,97612.09
2023-01-13T01:24:20.218Z,97611.72
2023-01-13T01:27:23.555Z,97606.16
2023-01-13T01:30:27.922Z,97604.81
2023-01-13T01:33:32.058Z,97613.06
2023-01-13T01:36:36.604Z,97615.81
2023-01-13T01:39:41.384Z,97604.06
2023-01-13T01:43:02.005Z,97600.66
2023-01-13T01:46:06.592Z,97599.72
2023-01-13T01:49:17.882Z,97589.50
2023-01-13T01:52:26.118Z,97583.38
2023-01-13T01:55:34.341Z,97588.56
2023-01-13T01:58:45.464Z,97571.94
2023-01-13T02:01:50.861Z,97572.91
2023-01-13T02:04:56.926Z,97567.34
2023-01-13T02:08:01.716Z,97558.13
2023-01-13T02:11:26.681Z,97562.03
2023-01-13T02:14:33.288Z,97567.06
2023-01-13T02:18:02.943Z,97557.28
2023-01-13T02:21:29.239Z,97553.13
2023-01-13T02:24:58.885Z,97560.63
2023-01-13T02:28:21.145Z,97554.59
2023-01-13T02:31:44.912Z,97547.97
2023-01-13T02:34:56.459Z,97547.88
2023-01-13T02:38:02.202Z,97539.75
2023-01-13T02:41:22.903Z,97534.50
2023-01-13T02:44:29.585Z,97537.31
2023-01-13T02:47:38.979Z,97529.59
2023-01-13T02:50:48.365Z,97524.59
2023-01-13T02:53:57.719Z,97522.75
2023-01-13T02:57:02.255Z,97527.19
2023-01-13T03:00:08.542Z,97530.00
2023-01-13T03:03:13.250Z,97525.06
2023-01-13T03:06:35.569Z,97518.38
2023-01-13T03:09:45.128Z,97521.50
2023-01-13T03:12:57.045Z,97510.88
2023-01-13T03:16:10.323Z,97504.03
2023-01-13T03:19:26.506Z,97513.44
2023-01-13T03:22:36.293Z,97508.19
2023-01-13T03:25:44.014Z,97510.38
2023-01-13T03:28:52.561Z,97518.47
2023-01-13T03:32:02.084Z,97504.53
2023-01-13T03:35:13.075Z,97478.41
2023-01-13T03:38:26.797Z,97508.66
2023-01-13T03:41:34.861Z,97505.69
2023-01-13T03:44:42.174Z,97500.53
2023-01-13T03:47:55.198Z,97510.63
2023-01-13T03:51:07.925Z,97501.88
2023-01-13T03:54:17.179Z,97499.53
2023-01-13T03:57:25.536Z,97492.31
2023-01-13T04:00:32.374Z,97490.59
2023-01-13T04:03:40.507Z,97488.38
2023-01-13T04:06:51.721Z,97489.88
2023-01-13T04:09:59.243Z,97487.56
2023-01-13T04:13:07.718Z,97487.25
2023-01-13T04:16:12.748Z,97492.72
2023-01-13T04:19:16.612Z,97493.06
2023-01-13T04:22:21.483Z,97493.34
2023-01-13T04:25:25.432Z,97495.78
2023-01-13T04:28:28.729Z,97503.72
2023-01-13T04:34:25.177Z,97501.63
2023-01-13T04:37:29.797Z,97496.81
2023-01-13T04:40:33.187Z,97495.47
2023-01-13T04:43:36.648Z,97492.78
2023-01-13T04:46:39.978Z,97494.56
2023-01-13T04:49:44.689Z,97495.78
2023-01-13T04:52:48.565Z,97466.34
2023-01-13T04:55:52.445Z,97489.72
2023-01-13T04:58:55.724Z,97500.88
2023-01-13T05:01:59.010Z,97505.47
2023-01-13T05:05:03.979Z,97510.03
2023-01-13T05:08:09.076Z,97513.22
2023-01-13T05:11:26.374Z,97514.28
2023-01-13T05:14:47.232Z,97501.78
2023-01-13T05:17:51.461Z,97509.63
2023-01-13T05:20:57.150Z,97505.22
2023-01-13T05:24:17.893Z,97498.22
2023-01-13T05:27:21.538Z,97498.06
2023-01-13T05:30:28.460Z,97499.81
2023-01-13T05:33:33.713Z,97490.19
2023-01-13T05:36:39.685Z,97496.25
2023-01-13T05:40:01.636Z,97499.97
2023-01-13T05:43:24.704Z,97504.50
2023-01-13T05:46:28.272Z,97499.13
2023-01-13T05:49:31.457Z,97511.13
2023-01-13T05:52:36.256Z,97499.88
2023-01-13T05:55:40.962Z,97500.88
2023-01-13T05:58:44.705Z,97500.47
2023-01-13T06:01:48.135Z,97499.41
2023-01-13T06:04:51.613Z,97497.53
2023-01-13T06:07:59.250Z,97486.81
2023-01-13T06:11:02.626Z,97494.03
2023-01-13T06:14:06.164Z,97488.88
2023-01-13T06:17:10.485Z,97500.31
2023-01-13T06:20:14.671Z,97490.19
2023-01-13T06:23:19.296Z,97492.13
2023-01-13T06:26:25.652Z,97492.28
2023-01-13T06:29:28.924Z,97488.25
2023-01-13T06:32:39.211Z,97489.50
2023-01-13T06:35:45.883Z,97482.16
2023-01-13T06:38:53.703Z,97369.09
2023-01-13T06:42:14.299Z,97487.72
2023-01-13T06:45:17.912Z,97489.06
2023-01-13T06:48:25.214Z,97481.84
2023-01-13T06:51:28.626Z,97481.50
2023-01-13T06:54:35.532Z,97474.59
2023-01-13T06:57:49.090Z,97492.97
2023-01-13T07:00:52.836Z,97492.06
2023-01-13T07:03:56.227Z,97489.25
2023-01-13T07:06:59.475Z,97490.38
2023-01-13T07:10:04.444Z,97496.78
2023-01-13T07:13:25.680Z,97499.91
2023-01-13T07:16:31.864Z,97502.38
2023-01-13T07:19:35.293Z,97502.38
2023-01-13T07:22:38.735Z,97504.25
2023-01-13T07:25:44.651Z,97497.97
2023-01-13T07:28:47.928Z,97492.81
2023-01-13T07:31:51.313Z,97484.25
2023-01-13T07:34:56.641Z,97481.66
2023-01-13T07:37:59.998Z,97477.34
2023-01-13T07:41:24.931Z,97483.69
2023-01-13T07:44:27.781Z,97484.44
2023-01-13T07:47:31.101Z,97478.66
2023-01-13T07:50:34.466Z,97472.59
2023-01-13T07:53:38.524Z,97478.25
2023-01-13T07:56:43.572Z,97485.00
2023-01-13T07:59:48.754Z,97482.34
2023-01-13T08:02:53.090Z,97485.22
2023-01-13T08:05:56.520Z,97488.97
2023-01-13T08:09:00.209Z,97488.66
2023-01-13T08:12:34.683Z,97494.13
2023-01-13T08:15:37.968Z,97498.31
2023-01-13T08:18:42.214Z,97488.56
2023-01-13T08:21:45.451Z,97492.59
2023-01-13T08:24:48.872Z,97493.78
2023-01-13T08:27:53.560Z,97482.06
2023-01-13T08:31:01.041Z,97471.44
2023-01-13T08:34:04.389Z,97482.41
2023-01-13T08:37:07.754Z,97501.22
2023-01-13T08:40:12.796Z,97492.66
2023-01-13T08:43:17.686Z,97496.69
2023-01-13T08:46:21.496Z,97493.06
2023-01-13T08:49:26.209Z,97488.97
2023-01-13T08:52:30.283Z,97493.22
2023-01-13T08:55:34.252Z,97494.59
2023-01-13T08:58:39.222Z,97503.44
2023-01-13T09:01:44.084Z,97506.44
2023-01-13T09:04:50.290Z,97501.44
2023-01-13T09:07:53.652Z,97503.03
2023-01-13T09:10:58.195Z,97513.25
2023-01-13T09:14:03.348Z,97416.00
2023-01-13T09:17:08.456Z,97516.47
2023-01-13T09:20:13.556Z,97526.75
2023-01-13T09:23:16.829Z,97525.31
2023-01-13T09:26:22.760Z,97534.25
2023-01-13T09:29:27.548Z,97533.44
2023-01-13T09:32:30.791Z,97530.78
2023-01-13T09:35:33.357Z,97544.63
2023-01-13T09:38:36.606Z,97557.59
2023-01-13T09:42:01.568Z,97574.13
2023-01-13T09:45:15.366Z,97628.94
2023-01-13T09:48:23.693Z,97649.06
2023-01-13T09:51:32.796Z,97667.94
2023-01-13T09:54:42.226Z,97671.41
2023-01-13T09:57:45.865Z,97669.16
2023-01-13T10:01:01.962Z,97674.31
2023-01-13T10:04:11.255Z,97693.00
2023-01-13T10:07:16.014Z,97688.59
2023-01-13T10:10:42.960Z,97683.53
2023-01-13T10:13:53.671Z,97699.38
2023-01-13T10:17:19.976Z,97674.63
2023-01-13T10:20:32.981Z,97679.25
2023-01-13T10:23:56.673Z,97687.94
2023-01-13T10:27:04.924Z,97707.31
2023-01-13T10:34:29.241Z,97689.56
2023-01-13T10:37:33.746Z,97682.78
2023-01-13T10:40:37.682Z,97689.81
2023-01-13T10:43:43.194Z,97678.66
2023-01-13T10:46:54.597Z,97706.16
2023-01-13T10:50:09.643Z,97715.22
2023-01-13T10:53:21.038Z,97699.22
2023-01-13T10:56:27.938Z,97614.16
2023-01-13T10:59:34.506Z,97660.13
2023-01-13T11:02:39.662Z,97675.59
2023-01-13T11:05:54.146Z,97649.66
2023-01-13T11:08:59.267Z,97616.38
2023-01-13T11:12:05.201Z,97622.34
2023-01-13T11:15:16.815Z,97649.34
2023-01-13T11:18:27.772Z,97632.44
2023-01-13T11:21:40.205Z,97661.44
2023-01-13T11:24:51.207Z,97664.03
2023-01-13T11:28:01.987Z,97658.88
2023-01-13T11:31:18.528Z,97665.34
2023-01-13T11:34:31.576Z,97653.31
2023-01-13T11:37:42.938Z,97655.56
2023-01-13T11:40:49.700Z,97644.72
2023-01-13T11:43:57.481Z,97589.00
2023-01-13T11:47:04.172Z,97655.03
2023-01-13T11:50:18.386Z,97663.16
2023-01-13T11:53:43.406Z,97667.19
2023-01-13T11:57:20.556Z,97636.47
2023-01-13T12:00:34.665Z,97620.84
2023-01-13T12:03:43.818Z,97659.53
2023-01-13T12:06:49.390Z,97665.44
2023-01-13T12:10:04.498Z,97656.34
2023-01-13T12:13:19.407Z,97672.41
2023-01-13T12:16:24.539Z,97684.84
2023-01-13T12:19:30.193Z,97688.81
2023-01-13T12:22:36.855Z,97651.47
2023-01-13T12:25:45.417Z,97673.44
2023-01-13T12:28:52.305Z,97665.88
2023-01-13T12:31:56.379Z,97652.81
2023-01-13T12:35:18.229Z,97638.66
2023-01-13T12:38:34.775Z,97635.16
2023-01-13T12:41:59.876Z,97617.38
2023-01-13T12:45:23.092Z,97638.53
2023-01-13T12:48:46.990Z,97637.56
2023-01-13T12:52:20.459Z,97640.72
2023-01-13T12:55:24.644Z,97635.38
2023-01-13T12:58:30.771Z,97638.41
2023-01-13T13:01:36.766Z,97539.16
2023-01-13T13:04:47.659Z,97658.53
2023-01-13T13:08:08.205Z,97656.47
2023-01-13T13:11:54.583Z,97657.63
2023-01-13T13:15:23.832Z,97665.09
2023-01-13T13:18:29.759Z,97646.84
2023-01-13T13:22:07.062Z,97661.34
2023-01-13T13:25:27.874Z,97614.78
2023-01-13T13:28:37.037Z,97669.41
2023-01-13T13:32:11.100Z,97550.44
2023-01-13T13:35:40.181Z,97684.34
2023-01-13T13:39:19.269Z,97669.47
2023-01-13T13:42:43.575Z,97695.31
2023-01-13T13:46:11.467Z,97703.41
2023-01-13T13:49:17.128Z,97710.00
2023-01-13T13:52:24.166Z,97711.13
2023-01-13T13:55:29.522Z,97692.44
2023-01-13T13:58:37.057Z,97711.19
2023-01-13T14:01:46.333Z,97712.69
2023-01-13T14:04:51.495Z,97731.53
2023-01-13T14:08:00.489Z,97720.72
2023-01-13T14:11:29.032Z,97736.78
2023-01-13T14:14:32.466Z,97726.31
2023-01-13T14:17:35.940Z,97737.31
2023-01-13T14:20:40.921Z,97721.41
2023-01-13T14:23:52.363Z,97710.41
2023-01-13T14:27:09.427Z,97706.09
2023-01-13T14:30:16.952Z,97706.22
2023-01-13T14:33:24.375Z,97718.19
2023-01-13T14:36:48.412Z,97715.31
2023-01-13T14:39:57.918Z,97710.25
2023-01-13T14:43:11.403Z,97711.72
2023-01-13T14:46:21.061Z,97727.44
2023-01-13T14:49:29.407Z,97733.25
2023-01-13T14:52:36.018Z,97738.03
2023-01-13T14:55:40.747Z,97724.91
2023-01-13T14:58:48.160Z,97747.63
2023-01-13T15:01:52.209Z,97756.69
2023-01-13T15:04:58.647Z,97754.56
2023-01-13T15:08:06.486Z,97768.22
2023-01-13T15:11:21.844Z,97770.03
2023-01-13T15:14:31.151Z,97778.81
2023-01-13T15:17:34.743Z,97781.81
2023-01-13T15:20:38.264Z,97768.44
2023-01-13T15:23:43.460Z,97752.66
2023-01-13T15:26:46.773Z,97782.28
2023-01-13T15:29:50.417Z,97794.59
2023-01-13T15:32:57.738Z,97801.53
2023-01-13T15:36:03.074Z,97812.50
2023-01-13T15:39:13.510Z,97803.94
2023-01-13T15:42:34.417Z,97822.91
2023-01-13T15:45:55.988Z,97748.34
2023-01-13T15:49:03.114Z,97831.53
2023-01-13T15:52:19.245Z,97817.50
2023-01-13T15:55:23.897Z,97828.38
2023-01-13T15:58:31.832Z,97826.97
2023-01-13T16:01:35.061Z,97838.91
2023-01-13T16:04:38.310Z,97865.22
2023-01-13T16:07:41.841Z,97858.94
2023-01-13T16:10:47.860Z,97832.91
2023-01-13T16:13:51.074Z,97866.53
2023-01-13T16:16:54.764Z,97875.34
2023-01-13T16:19:58.180Z,97873.00
2023-01-13T16:23:01.533Z,97876.16
2023-01-13T16:26:07.793Z,97881.22
2023-01-13T16:29:12.543Z,97905.44
2023-01-13T16:34:23.901Z,97926.41
2023-01-13T16:37:29.702Z,97940.25
2023-01-13T16:40:34.937Z,97938.50
2023-01-13T16:43:42.235Z,97948.44
2023-01-13T16:46:45.769Z,97956.66
2023-01-13T16:49:50.555Z,97942.00
2023-01-13T16:52:53.822Z,97954.66
2023-01-13T16:55:57.115Z,97949.47
2023-01-13T16:59:03.159Z,97948.69
2023-01-13T17:02:12.513Z,97954.66
2023-01-13T17:05:17.651Z,97954.50
2023-01-13T17:08:20.931Z,97959.19
2023-01-13T17:11:24.548Z,97963.25
2023-01-13T17:14:27.894Z,97957.44
2023-01-13T17:17:31.480Z,97959.34
2023-01-13T17:20:39.100Z,97964.25
2023-01-13T17:23:42.925Z,97977.28
2023-01-13T17:26:49.329Z,97980.59
2023-01-13T17:30:01.164Z,97979.91
2023-01-13T17:33:07.619Z,97987.72
2023-01-13T17:36:12.386Z,97982.41
2023-01-13T17:39:17.649Z,97990.19
2023-01-13T17:42:21.387Z,97997.81
2023-01-13T17:45:24.919Z,98000.38
2023-01-13T17:48:28.688Z,98000.31
2023-01-13T17:51:34.833Z,97996.28
2023-01-13T17:54:39.856Z,98001.56
2023-01-13T17:57:43.144Z,98015.53
2023-01-13T18:00:46.841Z,98019.88
2023-01-13T18:03:53.279Z,98018.75
2023-01-13T18:06:58.606Z,98018.56
2023-01-13T18:10:02.029Z,98016.06
2023-01-13T18:13:06.404Z,97925.88
2023-01-13T18:16:11.006Z,98015.09
2023-01-13T18:19:31.636Z,98032.28
2023-01-13T18:22:53.695Z,98029.66
2023-01-13T18:26:14.721Z,98033.84
2023-01-13T18:29:18.479Z,98038.84
2023-01-13T18:32:22.734Z,98040.72
2023-01-13T18:35:26.089Z,98045.03
2023-01-13T18:38:30.818Z,98048.41
2023-01-13T18:41:52.021Z,98039.53
2023-01-13T18:44:56.953Z,98062.25
2023-01-13T18:48:02.639Z,98051.44
2023-01-13T18:51:06.213Z,98061.94
2023-01-13T18:54:10.860Z,98061.41
2023-01-13T18:57:14.708Z,98070.66
2023-01-13T19:00:20.108Z,98059.50
2023-01-13T19:03:30.017Z,98089.97
2023-01-13T19:06:34.538Z,98093.59
2023-01-13T19:09:40.143Z,98093.50
2023-01-13T19:12:43.957Z,98089.81
2023-01-13T19:15:47.297Z,98089.03
2023-01-13T19:18:50.665Z,98099.47
2023-01-13T19:21:54.029Z,98097.03
2023-01-13T19:24:59.713Z,98110.84
2023-01-13T19:28:04.039Z,98111.69
2023-01-13T19:31:09.519Z,98118.38
2023-01-13T19:34:13.061Z,98109.16
2023-01-13T19:37:30.089Z,98108.91
2023-01-13T19:40:35.004Z,98111.25
2023-01-13T19:43:55.812Z,98121.78
2023-01-13T19:46:59.615Z,98118.25
2023-01-13T19:50:06.492Z,98126.94
2023-01-13T19:53:16.818Z,98128.28
2023-01-13T19:56:21.687Z,98129.97
2023-01-13T19:59:29.288Z,98134.19
2023-01-13T20:02:32.759Z,98140.00
2023-01-13T20:05:36.209Z,98131.31
2023-01-13T20:08:39.711Z,98135.66
2023-01-13T20:11:45.600Z,98128.84
2023-01-13T20:14:49.940Z,98129.63
2023-01-13T20:17:54.038Z,98137.41
2023-01-13T20:21:07.142Z,98143.47
2023-01-13T20:24:18.562Z,98146.06
2023-01-13T20:27:26.289Z,98148.69
2023-01-13T20:30:29.654Z,98160.75
2023-01-13T20:33:36.311Z,98153.94
2023-01-13T20:36:43.322Z,98154.47
2023-01-13T20:39:46.865Z,98158.81
2023-01-13T20:42:53.951Z,98157.84
2023-01-13T20:46:00.165Z,98168.88
2023-01-13T20:49:03.768Z,98165.41
2023-01-13T20:52:19.073Z,98159.66
2023-01-13T20:55:23.355Z,98177.03
2023-01-13T20:58:34.358Z,98176.19
2023-01-13T21:01:38.305Z,98131.56
2023-01-13T21:04:51.016Z,98174.97
2023-01-13T21:08:00.437Z,98192.13
2023-01-13T21:11:14.775Z,98191.22
2023-01-13T21:14:42.154Z,98194.94
2023-01-13T21:18:29.723Z,98205.09
2023-01-13T21:21:43.151Z,98182.97
2023-01-13T21:24:55.879Z,98165.25
2023-01-13T21:28:10.530Z,98204.19
2023-01-13T21:31:19.925Z,98208.75
2023-01-13T21:34:31.746Z,98204.34
2023-01-13T21:37:47.461Z,98203.59
2023-01-13T21:41:05.585Z,98228.69
2023-01-13T21:44:40.028Z,98233.06
2023-01-13T21:48:08.106Z,98234.00
2023-01-13T21:51:17.808Z,98234.66
2023-01-13T21:54:26.621Z,98245.00
2023-01-13T21:57:30.007Z,98245.09
2023-01-13T22:00:37.694Z,98251.84
2023-01-13T22:04:05.070Z,98251.34
2023-01-13T22:07:09.709Z,98260.75
2023-01-13T22:10:25.913Z,98266.84
2023-01-13T22:13:50.000Z,98276.31
2023-01-13T22:16:56.756Z,98280.41
2023-01-13T22:20:08.606Z,98277.13
2023-01-13T22:23:21.531Z,98282.47
2023-01-13T22:26:29.636Z,98283.91
2023-01-13T22:29:41.472Z,98273.44
2023-01-13T22:34:26.029Z,98285.53
2023-01-13T22:37:30.249Z,98225.00
2023-01-13T22:40:39.748Z,98286.03
2023-01-13T22:43:56.467Z,98283.50
2023-01-13T22:47:01.168Z,98288.00
2023-01-13T22:50:15.367Z,98294.88
2023-01-13T22:53:30.269Z,98304.97
2023-01-13T22:56:44.950Z,98294.88
2023-01-13T22:59:59.604Z,98304.81
2023-01-13T23:03:12.103Z,98304.69
2023-01-13T23:09:48.515Z,98305.69
2023-01-13T23:13:03.677Z,98313.16
2023-01-13T23:16:46.220Z,98308.28
2023-01-13T23:20:15.752Z,98310.84
2023-01-13T23:23:26.099Z,98304.91
2023-01-13T23:26:39.007Z,98318.53
2023-01-13T23:29:49.156Z,98318.66
2023-01-13T23:32:53.383Z,98324.50
2023-01-13T23:36:13.872Z,98316.97
2023-01-13T23:39:42.268Z,98330.94
2023-01-13T23:42:50.360Z,98335.19
2023-01-13T23:46:08.057Z,98342.16
2023-01-13T23:49:15.049Z,98348.84
2023-01-13T23:52:22.547Z,98341.91
2023-01-13T23:55:33.660Z,98348.16
2023-01-13T23:58:41.615Z,98349.13
